sensor_id;sensor_type;location;lat;lon;timestamp;P1;durP1;ratioP1;P2;durP2;ratioP2
71600;SDS011;59446;52.192;4.628;2022-11-03T00:01:49;3.67;;;0.93;;
71600;SDS011;59446;52.192;4.628;2022-11-03T00:04:15;3.58;;;0.70;;
71600;SDS011;59446;52.192;4.628;2022-11-03T00:06:42;3.27;;;0.90;;
71600;SDS011;59446;52.192;4.628;2022-11-03T00:09:10;1.25;;;0.77;;
71600;SDS011;59446;52.192;4.628;2022-11-03T00:11:38;2.08;;;0.70;;
71600;SDS011;59446;52.192;4.628;2022-11-03T00:14:04;5.00;;;0.90;;
71600;SDS011;59446;52.192;4.628;2022-11-03T00:16:31;1.43;;;0.80;;
71600;SDS011;59446;52.192;4.628;2022-11-03T00:18:56;1.25;;;0.70;;
71600;SDS011;59446;52.192;4.628;2022-11-03T00:21:22;3.13;;;0.80;;
71600;SDS011;59446;52.192;4.628;2022-11-03T00:23:48;2.33;;;0.60;;
71600;SDS011;59446;52.192;4.628;2022-11-03T00:26:14;1.30;;;0.70;;
71600;SDS011;59446;52.192;4.628;2022-11-03T00:28:47;1.15;;;0.55;;
71600;SDS011;59446;52.192;4.628;2022-11-03T00:31:17;1.23;;;0.47;;
71600;SDS011;59446;52.192;4.628;2022-11-03T00:33:45;2.78;;;0.75;;
71600;SDS011;59446;52.192;4.628;2022-11-03T00:36:11;1.30;;;0.70;;
71600;SDS011;59446;52.192;4.628;2022-11-03T00:38:38;2.53;;;0.60;;
71600;SDS011;59446;52.192;4.628;2022-11-03T00:41:04;1.08;;;0.60;;
71600;SDS011;59446;52.192;4.628;2022-11-03T00:43:31;3.20;;;0.63;;
71600;SDS011;59446;52.192;4.628;2022-11-03T00:45:58;3.33;;;0.80;;
71600;SDS011;59446;52.192;4.628;2022-11-03T00:48:24;1.73;;;0.70;;
71600;SDS011;59446;52.192;4.628;2022-11-03T00:50:53;1.33;;;0.70;;
71600;SDS011;59446;52.192;4.628;2022-11-03T00:53:41;2.80;;;0.80;;
71600;SDS011;59446;52.192;4.628;2022-11-03T00:56:09;1.92;;;0.75;;
71600;SDS011;59446;52.192;4.628;2022-11-03T00:58:39;1.92;;;0.57;;
71600;SDS011;59446;52.192;4.628;2022-11-03T01:01:12;0.60;;;0.50;;
71600;SDS011;59446;52.192;4.628;2022-11-03T01:03:39;1.63;;;0.90;;
71600;SDS011;59446;52.192;4.628;2022-11-03T01:06:26;2.40;;;0.80;;
71600;SDS011;59446;52.192;4.628;2022-11-03T01:09:10;1.42;;;0.60;;
71600;SDS011;59446;52.192;4.628;2022-11-03T01:11:35;0.80;;;0.63;;
71600;SDS011;59446;52.192;4.628;2022-11-03T01:14:11;2.23;;;0.70;;
71600;SDS011;59446;52.192;4.628;2022-11-03T01:16:38;2.17;;;0.60;;
71600;SDS011;59446;52.192;4.628;2022-11-03T01:19:04;1.73;;;0.63;;
71600;SDS011;59446;52.192;4.628;2022-11-03T01:21:30;2.07;;;0.50;;
71600;SDS011;59446;52.192;4.628;2022-11-03T01:23:55;1.27;;;0.63;;
71600;SDS011;59446;52.192;4.628;2022-11-03T01:26:23;2.15;;;0.60;;
71600;SDS011;59446;52.192;4.628;2022-11-03T01:28:49;2.47;;;0.80;;
71600;SDS011;59446;52.192;4.628;2022-11-03T01:31:16;2.60;;;0.80;;
71600;SDS011;59446;52.192;4.628;2022-11-03T01:33:43;3.10;;;0.88;;
71600;SDS011;59446;52.192;4.628;2022-11-03T01:36:09;1.85;;;0.65;;
71600;SDS011;59446;52.192;4.628;2022-11-03T01:38:36;2.25;;;0.73;;
71600;SDS011;59446;52.192;4.628;2022-11-03T01:41:03;2.07;;;0.70;;
71600;SDS011;59446;52.192;4.628;2022-11-03T01:43:31;1.33;;;0.57;;
71600;SDS011;59446;52.192;4.628;2022-11-03T01:46:05;2.50;;;0.80;;
71600;SDS011;59446;52.192;4.628;2022-11-03T01:48:39;1.98;;;0.75;;
71600;SDS011;59446;52.192;4.628;2022-11-03T01:51:09;1.80;;;0.50;;
71600;SDS011;59446;52.192;4.628;2022-11-03T01:53:38;1.63;;;0.70;;
71600;SDS011;59446;52.192;4.628;2022-11-03T01:56:06;2.57;;;0.60;;
71600;SDS011;59446;52.192;4.628;2022-11-03T01:58:35;2.30;;;0.90;;
71600;SDS011;59446;52.192;4.628;2022-11-03T02:01:07;2.65;;;0.80;;
71600;SDS011;59446;52.192;4.628;2022-11-03T02:03:33;2.90;;;0.63;;
71600;SDS011;59446;52.192;4.628;2022-11-03T02:06:04;1.05;;;0.68;;
71600;SDS011;59446;52.192;4.628;2022-11-03T02:08:41;3.20;;;0.60;;
71600;SDS011;59446;52.192;4.628;2022-11-03T02:11:12;1.10;;;0.53;;
71600;SDS011;59446;52.192;4.628;2022-11-03T02:13:58;1.80;;;0.70;;
71600;SDS011;59446;52.192;4.628;2022-11-03T02:16:23;1.73;;;0.50;;
71600;SDS011;59446;52.192;4.628;2022-11-03T02:18:52;1.63;;;0.70;;
71600;SDS011;59446;52.192;4.628;2022-11-03T02:26:26;1.42;;;0.70;;
71600;SDS011;59446;52.192;4.628;2022-11-03T02:28:52;2.20;;;0.70;;
71600;SDS011;59446;52.192;4.628;2022-11-03T02:36:43;2.72;;;0.60;;
71600;SDS011;59446;52.192;4.628;2022-11-03T02:39:16;2.67;;;0.60;;
71600;SDS011;59446;52.192;4.628;2022-11-03T02:41:42;0.98;;;0.70;;
71600;SDS011;59446;52.192;4.628;2022-11-03T02:44:12;0.93;;;0.60;;
71600;SDS011;59446;52.192;4.628;2022-11-03T02:46:41;2.22;;;0.70;;
71600;SDS011;59446;52.192;4.628;2022-11-03T02:49:09;1.10;;;0.50;;
71600;SDS011;59446;52.192;4.628;2022-11-03T02:51:35;1.90;;;0.80;;
71600;SDS011;59446;52.192;4.628;2022-11-03T02:56:56;1.08;;;0.50;;
71600;SDS011;59446;52.192;4.628;2022-11-03T02:59:27;2.20;;;0.80;;
71600;SDS011;59446;52.192;4.628;2022-11-03T03:02:05;1.60;;;0.73;;
71600;SDS011;59446;52.192;4.628;2022-11-03T03:04:41;0.73;;;0.50;;
71600;SDS011;59446;52.192;4.628;2022-11-03T03:07:14;1.00;;;0.50;;
71600;SDS011;59446;52.192;4.628;2022-11-03T03:09:45;1.63;;;0.80;;
71600;SDS011;59446;52.192;4.628;2022-11-03T03:12:17;1.00;;;0.40;;
71600;SDS011;59446;52.192;4.628;2022-11-03T03:14:45;1.27;;;0.50;;
71600;SDS011;59446;52.192;4.628;2022-11-03T03:19:55;1.80;;;0.57;;
71600;SDS011;59446;52.192;4.628;2022-11-03T03:25:07;0.90;;;0.50;;
71600;SDS011;59446;52.192;4.628;2022-11-03T03:27:35;2.07;;;0.67;;
71600;SDS011;59446;52.192;4.628;2022-11-03T03:30:06;1.67;;;0.75;;
71600;SDS011;59446;52.192;4.628;2022-11-03T03:32:36;1.55;;;0.50;;
71600;SDS011;59446;52.192;4.628;2022-11-03T03:35:05;1.85;;;0.63;;
71600;SDS011;59446;52.192;4.628;2022-11-03T03:37:36;0.80;;;0.60;;
71600;SDS011;59446;52.192;4.628;2022-11-03T03:40:07;0.88;;;0.70;;
71600;SDS011;59446;52.192;4.628;2022-11-03T03:42:35;2.15;;;0.68;;
71600;SDS011;59446;52.192;4.628;2022-11-03T03:45:03;1.23;;;0.80;;
71600;SDS011;59446;52.192;4.628;2022-11-03T03:47:32;2.17;;;0.60;;
71600;SDS011;59446;52.192;4.628;2022-11-03T03:49:59;1.60;;;0.82;;
71600;SDS011;59446;52.192;4.628;2022-11-03T03:52:25;0.70;;;0.50;;
71600;SDS011;59446;52.192;4.628;2022-11-03T03:54:51;1.83;;;0.50;;
71600;SDS011;59446;52.192;4.628;2022-11-03T03:57:17;1.23;;;0.50;;
71600;SDS011;59446;52.192;4.628;2022-11-03T03:59:46;1.13;;;0.60;;
71600;SDS011;59446;52.192;4.628;2022-11-03T04:02:11;2.55;;;0.70;;
71600;SDS011;59446;52.192;4.628;2022-11-03T04:04:37;1.03;;;0.80;;
71600;SDS011;59446;52.192;4.628;2022-11-03T04:07:04;1.20;;;0.60;;
71600;SDS011;59446;52.192;4.628;2022-11-03T04:09:48;2.33;;;0.50;;
71600;SDS011;59446;52.192;4.628;2022-11-03T04:12:14;1.83;;;0.60;;
71600;SDS011;59446;52.192;4.628;2022-11-03T04:14:58;2.10;;;0.63;;
71600;SDS011;59446;52.192;4.628;2022-11-03T04:17:42;0.68;;;0.57;;
71600;SDS011;59446;52.192;4.628;2022-11-03T04:20:28;2.00;;;0.60;;
71600;SDS011;59446;52.192;4.628;2022-11-03T04:23:12;0.73;;;0.60;;
71600;SDS011;59446;52.192;4.628;2022-11-03T04:25:38;0.87;;;0.50;;
71600;SDS011;59446;52.192;4.628;2022-11-03T04:28:08;1.40;;;0.60;;
71600;SDS011;59446;52.192;4.628;2022-11-03T04:30:36;1.90;;;0.97;;
71600;SDS011;59446;52.192;4.628;2022-11-03T04:33:01;4.20;;;0.60;;
71600;SDS011;59446;52.192;4.628;2022-11-03T04:35:29;1.33;;;0.70;;
71600;SDS011;59446;52.192;4.628;2022-11-03T04:37:59;1.23;;;0.60;;
71600;SDS011;59446;52.192;4.628;2022-11-03T04:40:27;0.70;;;0.50;;
71600;SDS011;59446;52.192;4.628;2022-11-03T04:42:53;0.82;;;0.50;;
71600;SDS011;59446;52.192;4.628;2022-11-03T04:45:27;1.03;;;0.80;;
71600;SDS011;59446;52.192;4.628;2022-11-03T04:47:54;1.88;;;0.88;;
71600;SDS011;59446;52.192;4.628;2022-11-03T04:50:22;0.70;;;0.50;;
71600;SDS011;59446;52.192;4.628;2022-11-03T04:52:56;1.03;;;0.60;;
71600;SDS011;59446;52.192;4.628;2022-11-03T04:55:22;0.88;;;0.45;;
71600;SDS011;59446;52.192;4.628;2022-11-03T04:57:50;0.68;;;0.50;;
71600;SDS011;59446;52.192;4.628;2022-11-03T05:00:22;1.35;;;0.60;;
71600;SDS011;59446;52.192;4.628;2022-11-03T05:02:48;1.53;;;0.50;;
71600;SDS011;59446;52.192;4.628;2022-11-03T05:05:15;2.00;;;0.70;;
71600;SDS011;59446;52.192;4.628;2022-11-03T05:07:41;1.67;;;0.50;;
71600;SDS011;59446;52.192;4.628;2022-11-03T05:10:09;1.23;;;0.50;;
71600;SDS011;59446;52.192;4.628;2022-11-03T05:12:39;2.37;;;1.00;;
71600;SDS011;59446;52.192;4.628;2022-11-03T05:15:07;0.82;;;0.60;;
71600;SDS011;59446;52.192;4.628;2022-11-03T05:17:46;1.75;;;0.52;;
71600;SDS011;59446;52.192;4.628;2022-11-03T05:20:23;1.23;;;0.70;;
71600;SDS011;59446;52.192;4.628;2022-11-03T05:22:59;2.08;;;0.60;;
71600;SDS011;59446;52.192;4.628;2022-11-03T05:25:33;2.00;;;0.73;;
71600;SDS011;59446;52.192;4.628;2022-11-03T05:28:02;1.75;;;0.55;;
71600;SDS011;59446;52.192;4.628;2022-11-03T05:30:32;0.60;;;0.50;;
71600;SDS011;59446;52.192;4.628;2022-11-03T05:32:57;1.60;;;0.80;;
71600;SDS011;59446;52.192;4.628;2022-11-03T05:35:23;1.40;;;0.57;;
71600;SDS011;59446;52.192;4.628;2022-11-03T05:37:48;1.57;;;0.50;;
71600;SDS011;59446;52.192;4.628;2022-11-03T05:40:24;1.48;;;0.57;;
71600;SDS011;59446;52.192;4.628;2022-11-03T05:42:52;0.50;;;0.50;;
71600;SDS011;59446;52.192;4.628;2022-11-03T05:45:28;1.52;;;0.70;;
71600;SDS011;59446;52.192;4.628;2022-11-03T05:47:56;0.80;;;0.60;;
71600;SDS011;59446;52.192;4.628;2022-11-03T05:50:23;1.53;;;0.50;;
71600;SDS011;59446;52.192;4.628;2022-11-03T05:52:52;0.45;;;0.43;;
71600;SDS011;59446;52.192;4.628;2022-11-03T05:55:25;0.88;;;0.50;;
71600;SDS011;59446;52.192;4.628;2022-11-03T05:57:58;1.23;;;0.50;;
71600;SDS011;59446;52.192;4.628;2022-11-03T06:00:33;0.40;;;0.40;;
71600;SDS011;59446;52.192;4.628;2022-11-03T06:03:03;1.95;;;0.68;;
71600;SDS011;59446;52.192;4.628;2022-11-03T06:05:30;2.78;;;0.60;;
71600;SDS011;59446;52.192;4.628;2022-11-03T06:07:57;1.47;;;0.70;;
71600;SDS011;59446;52.192;4.628;2022-11-03T06:10:35;0.80;;;0.60;;
71600;SDS011;59446;52.192;4.628;2022-11-03T06:15:46;0.73;;;0.50;;
71600;SDS011;59446;52.192;4.628;2022-11-03T06:18:16;0.63;;;0.47;;
71600;SDS011;59446;52.192;4.628;2022-11-03T06:20:48;1.33;;;0.60;;
71600;SDS011;59446;52.192;4.628;2022-11-03T06:23:16;1.70;;;0.70;;
71600;SDS011;59446;52.192;4.628;2022-11-03T06:25:43;0.85;;;0.50;;
71600;SDS011;59446;52.192;4.628;2022-11-03T06:28:17;1.05;;;0.60;;
71600;SDS011;59446;52.192;4.628;2022-11-03T06:30:45;0.43;;;0.40;;
71600;SDS011;59446;52.192;4.628;2022-11-03T06:33:12;1.23;;;0.70;;
71600;SDS011;59446;52.192;4.628;2022-11-03T06:35:43;0.82;;;0.43;;
71600;SDS011;59446;52.192;4.628;2022-11-03T06:38:19;0.98;;;0.60;;
71600;SDS011;59446;52.192;4.628;2022-11-03T06:40:50;0.90;;;0.70;;
71600;SDS011;59446;52.192;4.628;2022-11-03T06:43:24;0.50;;;0.50;;
71600;SDS011;59446;52.192;4.628;2022-11-03T06:45:59;0.50;;;0.50;;
71600;SDS011;59446;52.192;4.628;2022-11-03T06:48:29;1.03;;;0.60;;
71600;SDS011;59446;52.192;4.628;2022-11-03T06:50:58;0.57;;;0.43;;
71600;SDS011;59446;52.192;4.628;2022-11-03T06:53:25;2.05;;;0.85;;
71600;SDS011;59446;52.192;4.628;2022-11-03T06:55:55;1.05;;;0.70;;
71600;SDS011;59446;52.192;4.628;2022-11-03T06:58:31;1.47;;;0.67;;
71600;SDS011;59446;52.192;4.628;2022-11-03T07:00:59;2.03;;;0.88;;
71600;SDS011;59446;52.192;4.628;2022-11-03T07:03:31;1.70;;;0.63;;
71600;SDS011;59446;52.192;4.628;2022-11-03T07:06:00;1.13;;;0.60;;
71600;SDS011;59446;52.192;4.628;2022-11-03T07:08:31;1.52;;;0.68;;
71600;SDS011;59446;52.192;4.628;2022-11-03T07:11:03;1.67;;;0.65;;
71600;SDS011;59446;52.192;4.628;2022-11-03T07:13:37;3.13;;;1.03;;
71600;SDS011;59446;52.192;4.628;2022-11-03T07:16:02;1.55;;;0.68;;
71600;SDS011;59446;52.192;4.628;2022-11-03T07:18:33;2.20;;;0.60;;
71600;SDS011;59446;52.192;4.628;2022-11-03T07:21:05;1.65;;;0.70;;
71600;SDS011;59446;52.192;4.628;2022-11-03T07:23:43;1.23;;;0.60;;
71600;SDS011;59446;52.192;4.628;2022-11-03T07:26:09;3.33;;;0.90;;
71600;SDS011;59446;52.192;4.628;2022-11-03T07:28:35;0.77;;;0.67;;
71600;SDS011;59446;52.192;4.628;2022-11-03T07:31:12;2.45;;;0.60;;
71600;SDS011;59446;52.192;4.628;2022-11-03T07:33:40;1.20;;;0.65;;
71600;SDS011;59446;52.192;4.628;2022-11-03T07:36:06;1.20;;;0.60;;
71600;SDS011;59446;52.192;4.628;2022-11-03T07:38:34;0.80;;;0.50;;
71600;SDS011;59446;52.192;4.628;2022-11-03T07:41:00;1.73;;;1.10;;
71600;SDS011;59446;52.192;4.628;2022-11-03T07:43:29;3.70;;;0.90;;
71600;SDS011;59446;52.192;4.628;2022-11-03T07:46:01;0.98;;;0.63;;
71600;SDS011;59446;52.192;4.628;2022-11-03T07:54:08;2.38;;;0.80;;
71600;SDS011;59446;52.192;4.628;2022-11-03T07:56:37;1.50;;;0.70;;
71600;SDS011;59446;52.192;4.628;2022-11-03T07:59:13;1.27;;;0.57;;
71600;SDS011;59446;52.192;4.628;2022-11-03T08:01:43;1.67;;;0.70;;
71600;SDS011;59446;52.192;4.628;2022-11-03T08:04:32;1.50;;;0.70;;
71600;SDS011;59446;52.192;4.628;2022-11-03T08:06:59;1.90;;;0.65;;
71600;SDS011;59446;52.192;4.628;2022-11-03T08:09:24;1.87;;;0.70;;
71600;SDS011;59446;52.192;4.628;2022-11-03T08:11:50;1.37;;;0.60;;
71600;SDS011;59446;52.192;4.628;2022-11-03T08:14:15;1.63;;;0.93;;
71600;SDS011;59446;52.192;4.628;2022-11-03T08:16:41;0.93;;;0.63;;
71600;SDS011;59446;52.192;4.628;2022-11-03T08:19:07;3.50;;;0.60;;
71600;SDS011;59446;52.192;4.628;2022-11-03T08:21:32;2.80;;;0.98;;
71600;SDS011;59446;52.192;4.628;2022-11-03T08:23:58;1.80;;;0.90;;
71600;SDS011;59446;52.192;4.628;2022-11-03T08:26:23;6.47;;;1.20;;
71600;SDS011;59446;52.192;4.628;2022-11-03T08:28:49;3.40;;;1.17;;
71600;SDS011;59446;52.192;4.628;2022-11-03T08:31:14;4.63;;;1.20;;
71600;SDS011;59446;52.192;4.628;2022-11-03T08:33:40;4.18;;;1.23;;
71600;SDS011;59446;52.192;4.628;2022-11-03T08:36:05;3.10;;;0.97;;
71600;SDS011;59446;52.192;4.628;2022-11-03T08:38:32;1.98;;;0.70;;
71600;SDS011;59446;52.192;4.628;2022-11-03T08:40:57;3.37;;;1.17;;
71600;SDS011;59446;52.192;4.628;2022-11-03T08:43:23;3.80;;;0.60;;
71600;SDS011;59446;52.192;4.628;2022-11-03T08:45:49;4.03;;;0.80;;
71600;SDS011;59446;52.192;4.628;2022-11-03T08:48:20;4.63;;;1.33;;
71600;SDS011;59446;52.192;4.628;2022-11-03T08:50:47;2.78;;;1.00;;
71600;SDS011;59446;52.192;4.628;2022-11-03T08:53:15;3.13;;;1.17;;
71600;SDS011;59446;52.192;4.628;2022-11-03T08:55:40;2.75;;;1.15;;
71600;SDS011;59446;52.192;4.628;2022-11-03T08:58:06;2.87;;;0.70;;
71600;SDS011;59446;52.192;4.628;2022-11-03T09:00:31;3.27;;;0.90;;
71600;SDS011;59446;52.192;4.628;2022-11-03T09:02:57;2.27;;;0.70;;
71600;SDS011;59446;52.192;4.628;2022-11-03T09:05:22;2.13;;;0.90;;
71600;SDS011;59446;52.192;4.628;2022-11-03T09:07:47;3.03;;;0.80;;
71600;SDS011;59446;52.192;4.628;2022-11-03T09:10:12;3.10;;;0.83;;
71600;SDS011;59446;52.192;4.628;2022-11-03T09:12:38;2.07;;;0.87;;
71600;SDS011;59446;52.192;4.628;2022-11-03T09:15:04;1.85;;;0.80;;
71600;SDS011;59446;52.192;4.628;2022-11-03T09:17:30;2.47;;;0.90;;
71600;SDS011;59446;52.192;4.628;2022-11-03T09:19:55;3.83;;;1.27;;
71600;SDS011;59446;52.192;4.628;2022-11-03T09:22:21;6.60;;;2.40;;
71600;SDS011;59446;52.192;4.628;2022-11-03T09:24:47;6.15;;;2.10;;
71600;SDS011;59446;52.192;4.628;2022-11-03T09:27:12;6.30;;;1.83;;
71600;SDS011;59446;52.192;4.628;2022-11-03T09:29:38;6.07;;;2.38;;
71600;SDS011;59446;52.192;4.628;2022-11-03T09:32:05;6.67;;;1.97;;
71600;SDS011;59446;52.192;4.628;2022-11-03T09:34:30;7.05;;;1.52;;
71600;SDS011;59446;52.192;4.628;2022-11-03T09:36:56;4.57;;;1.20;;
71600;SDS011;59446;52.192;4.628;2022-11-03T09:39:21;3.77;;;1.10;;
71600;SDS011;59446;52.192;4.628;2022-11-03T09:41:47;5.25;;;1.30;;
71600;SDS011;59446;52.192;4.628;2022-11-03T09:44:13;4.87;;;0.87;;
71600;SDS011;59446;52.192;4.628;2022-11-03T09:46:38;5.17;;;1.30;;
71600;SDS011;59446;52.192;4.628;2022-11-03T09:49:04;6.23;;;1.67;;
71600;SDS011;59446;52.192;4.628;2022-11-03T09:51:30;2.72;;;1.20;;
71600;SDS011;59446;52.192;4.628;2022-11-03T09:54:00;2.10;;;0.80;;
71600;SDS011;59446;52.192;4.628;2022-11-03T09:56:27;3.45;;;1.20;;
71600;SDS011;59446;52.192;4.628;2022-11-03T09:58:53;2.97;;;1.20;;
71600;SDS011;59446;52.192;4.628;2022-11-03T10:01:19;3.10;;;1.17;;
71600;SDS011;59446;52.192;4.628;2022-11-03T10:03:44;7.67;;;2.40;;
71600;SDS011;59446;52.192;4.628;2022-11-03T10:06:10;4.40;;;1.50;;
71600;SDS011;59446;52.192;4.628;2022-11-03T10:08:36;5.87;;;1.80;;
71600;SDS011;59446;52.192;4.628;2022-11-03T10:11:03;4.55;;;1.60;;
71600;SDS011;59446;52.192;4.628;2022-11-03T10:13:40;3.40;;;1.30;;
71600;SDS011;59446;52.192;4.628;2022-11-03T10:16:11;4.25;;;1.50;;
71600;SDS011;59446;52.192;4.628;2022-11-03T10:18:41;5.88;;;1.77;;
71600;SDS011;59446;52.192;4.628;2022-11-03T10:23:55;13.52;;;2.88;;
71600;SDS011;59446;52.192;4.628;2022-11-03T10:26:20;12.80;;;2.57;;
71600;SDS011;59446;52.192;4.628;2022-11-03T10:29:02;14.80;;;4.10;;
71600;SDS011;59446;52.192;4.628;2022-11-03T10:31:34;20.40;;;5.67;;
71600;SDS011;59446;52.192;4.628;2022-11-03T10:34:05;14.55;;;3.95;;
71600;SDS011;59446;52.192;4.628;2022-11-03T10:36:47;11.45;;;3.08;;
71600;SDS011;59446;52.192;4.628;2022-11-03T10:39:31;12.70;;;3.27;;
71600;SDS011;59446;52.192;4.628;2022-11-03T10:41:56;12.07;;;3.55;;
71600;SDS011;59446;52.192;4.628;2022-11-03T10:44:24;10.60;;;3.08;;
71600;SDS011;59446;52.192;4.628;2022-11-03T10:46:55;12.70;;;3.10;;
71600;SDS011;59446;52.192;4.628;2022-11-03T10:49:20;7.78;;;2.03;;
71600;SDS011;59446;52.192;4.628;2022-11-03T10:51:47;3.83;;;1.37;;
71600;SDS011;59446;52.192;4.628;2022-11-03T10:54:14;6.63;;;1.55;;
71600;SDS011;59446;52.192;4.628;2022-11-03T10:56:42;7.30;;;1.73;;
71600;SDS011;59446;52.192;4.628;2022-11-03T10:59:25;6.23;;;1.53;;
71600;SDS011;59446;52.192;4.628;2022-11-03T11:01:56;5.53;;;1.55;;
71600;SDS011;59446;52.192;4.628;2022-11-03T11:04:22;6.22;;;1.67;;
71600;SDS011;59446;52.192;4.628;2022-11-03T11:06:47;6.20;;;1.40;;
71600;SDS011;59446;52.192;4.628;2022-11-03T11:09:14;5.07;;;1.23;;
71600;SDS011;59446;52.192;4.628;2022-11-03T11:12:05;5.25;;;1.40;;
71600;SDS011;59446;52.192;4.628;2022-11-03T11:14:50;5.65;;;1.38;;
71600;SDS011;59446;52.192;4.628;2022-11-03T11:17:40;7.32;;;1.63;;
71600;SDS011;59446;52.192;4.628;2022-11-03T11:22:42;3.33;;;1.30;;
71600;SDS011;59446;52.192;4.628;2022-11-03T11:25:07;7.20;;;1.73;;
71600;SDS011;59446;52.192;4.628;2022-11-03T11:30:05;4.83;;;1.10;;
71600;SDS011;59446;52.192;4.628;2022-11-03T11:33:11;4.60;;;1.15;;
71600;SDS011;59446;52.192;4.628;2022-11-03T11:41:19;5.60;;;1.30;;
71600;SDS011;59446;52.192;4.628;2022-11-03T11:55:39;3.63;;;1.15;;
71600;SDS011;59446;52.192;4.628;2022-11-03T11:58:51;3.20;;;0.93;;
71600;SDS011;59446;52.192;4.628;2022-11-03T12:01:19;3.13;;;1.20;;
71600;SDS011;59446;52.192;4.628;2022-11-03T12:03:50;4.88;;;0.82;;
71600;SDS011;59446;52.192;4.628;2022-11-03T12:06:30;4.20;;;1.00;;
71600;SDS011;59446;52.192;4.628;2022-11-03T12:09:03;2.78;;;0.80;;
71600;SDS011;59446;52.192;4.628;2022-11-03T12:11:40;4.38;;;1.25;;
71600;SDS011;59446;52.192;4.628;2022-11-03T12:14:23;5.15;;;1.38;;
71600;SDS011;59446;52.192;4.628;2022-11-03T12:16:48;5.07;;;1.13;;
71600;SDS011;59446;52.192;4.628;2022-11-03T12:22:02;3.30;;;1.17;;
71600;SDS011;59446;52.192;4.628;2022-11-03T12:26:54;5.47;;;1.17;;
71600;SDS011;59446;52.192;4.628;2022-11-03T12:29:20;2.15;;;0.98;;
71600;SDS011;59446;52.192;4.628;2022-11-03T12:31:46;3.00;;;1.07;;
71600;SDS011;59446;52.192;4.628;2022-11-03T12:34:11;2.55;;;0.98;;
71600;SDS011;59446;52.192;4.628;2022-11-03T12:36:37;4.57;;;1.13;;
71600;SDS011;59446;52.192;4.628;2022-11-03T12:39:02;3.43;;;1.03;;
71600;SDS011;59446;52.192;4.628;2022-11-03T12:41:27;6.57;;;1.73;;
71600;SDS011;59446;52.192;4.628;2022-11-03T12:43:53;3.53;;;0.87;;
71600;SDS011;59446;52.192;4.628;2022-11-03T12:46:20;3.70;;;1.10;;
71600;SDS011;59446;52.192;4.628;2022-11-03T12:48:46;2.50;;;0.70;;
71600;SDS011;59446;52.192;4.628;2022-11-03T12:51:13;2.80;;;1.00;;
71600;SDS011;59446;52.192;4.628;2022-11-03T12:53:40;4.03;;;1.08;;
71600;SDS011;59446;52.192;4.628;2022-11-03T12:56:06;2.80;;;0.90;;
71600;SDS011;59446;52.192;4.628;2022-11-03T12:58:32;3.67;;;0.90;;
71600;SDS011;59446;52.192;4.628;2022-11-03T13:00:58;2.72;;;1.10;;
71600;SDS011;59446;52.192;4.628;2022-11-03T13:03:24;2.37;;;0.90;;
71600;SDS011;59446;52.192;4.628;2022-11-03T13:05:49;2.73;;;1.13;;
71600;SDS011;59446;52.192;4.628;2022-11-03T13:08:14;4.10;;;1.00;;
71600;SDS011;59446;52.192;4.628;2022-11-03T13:10:40;2.65;;;1.00;;
71600;SDS011;59446;52.192;4.628;2022-11-03T13:13:05;2.03;;;0.63;;
71600;SDS011;59446;52.192;4.628;2022-11-03T13:15:31;3.53;;;0.97;;
71600;SDS011;59446;52.192;4.628;2022-11-03T13:17:56;3.67;;;0.90;;
71600;SDS011;59446;52.192;4.628;2022-11-03T13:20:21;5.37;;;1.30;;
71600;SDS011;59446;52.192;4.628;2022-11-03T13:22:47;3.33;;;1.10;;
71600;SDS011;59446;52.192;4.628;2022-11-03T13:25:12;4.83;;;1.40;;
71600;SDS011;59446;52.192;4.628;2022-11-03T13:27:38;2.63;;;0.90;;
71600;SDS011;59446;52.192;4.628;2022-11-03T13:30:03;2.80;;;0.90;;
71600;SDS011;59446;52.192;4.628;2022-11-03T13:32:31;2.80;;;1.65;;
71600;SDS011;59446;52.192;4.628;2022-11-03T13:34:56;2.13;;;1.00;;
71600;SDS011;59446;52.192;4.628;2022-11-03T13:37:22;3.83;;;1.40;;
71600;SDS011;59446;52.192;4.628;2022-11-03T13:39:47;3.67;;;1.00;;
71600;SDS011;59446;52.192;4.628;2022-11-03T13:42:12;4.85;;;1.15;;
71600;SDS011;59446;52.192;4.628;2022-11-03T13:44:38;2.87;;;0.87;;
71600;SDS011;59446;52.192;4.628;2022-11-03T13:47:03;3.37;;;1.07;;
71600;SDS011;59446;52.192;4.628;2022-11-03T13:49:29;4.68;;;1.08;;
71600;SDS011;59446;52.192;4.628;2022-11-03T13:51:54;2.20;;;0.90;;
71600;SDS011;59446;52.192;4.628;2022-11-03T13:54:20;5.97;;;0.90;;
71600;SDS011;59446;52.192;4.628;2022-11-03T13:56:45;3.90;;;1.03;;
71600;SDS011;59446;52.192;4.628;2022-11-03T13:59:10;3.77;;;0.90;;
71600;SDS011;59446;52.192;4.628;2022-11-03T14:01:36;2.60;;;1.40;;
71600;SDS011;59446;52.192;4.628;2022-11-03T14:04:02;3.63;;;1.08;;
71600;SDS011;59446;52.192;4.628;2022-11-03T14:06:27;2.07;;;1.00;;
71600;SDS011;59446;52.192;4.628;2022-11-03T14:08:53;1.80;;;0.73;;
71600;SDS011;59446;52.192;4.628;2022-11-03T14:11:18;1.30;;;0.70;;
71600;SDS011;59446;52.192;4.628;2022-11-03T14:14:02;3.83;;;1.27;;
71600;SDS011;59446;52.192;4.628;2022-11-03T14:16:27;1.27;;;0.60;;
71600;SDS011;59446;52.192;4.628;2022-11-03T14:18:53;2.27;;;0.60;;
71600;SDS011;59446;52.192;4.628;2022-11-03T14:21:18;2.43;;;0.70;;
71600;SDS011;59446;52.192;4.628;2022-11-03T14:23:43;2.37;;;0.97;;
71600;SDS011;59446;52.192;4.628;2022-11-03T14:26:09;4.13;;;1.03;;
71600;SDS011;59446;52.192;4.628;2022-11-03T14:28:34;2.60;;;0.93;;
71600;SDS011;59446;52.192;4.628;2022-11-03T14:30:59;1.70;;;0.80;;
71600;SDS011;59446;52.192;4.628;2022-11-03T14:33:25;4.68;;;0.85;;
71600;SDS011;59446;52.192;4.628;2022-11-03T14:35:50;7.33;;;0.90;;
71600;SDS011;59446;52.192;4.628;2022-11-03T14:38:16;3.33;;;0.73;;
71600;SDS011;59446;52.192;4.628;2022-11-03T14:40:42;1.90;;;0.70;;
71600;SDS011;59446;52.192;4.628;2022-11-03T14:43:26;3.33;;;0.70;;
71600;SDS011;59446;52.192;4.628;2022-11-03T14:45:52;1.70;;;0.77;;
71600;SDS011;59446;52.192;4.628;2022-11-03T14:48:17;1.80;;;0.70;;
71600;SDS011;59446;52.192;4.628;2022-11-03T14:50:42;4.90;;;0.90;;
71600;SDS011;59446;52.192;4.628;2022-11-03T14:53:08;2.03;;;0.83;;
71600;SDS011;59446;52.192;4.628;2022-11-03T14:55:33;1.70;;;0.77;;
71600;SDS011;59446;52.192;4.628;2022-11-03T14:57:58;2.67;;;0.90;;
71600;SDS011;59446;52.192;4.628;2022-11-03T15:00:24;6.23;;;0.90;;
71600;SDS011;59446;52.192;4.628;2022-11-03T15:02:49;3.27;;;0.80;;
71600;SDS011;59446;52.192;4.628;2022-11-03T15:05:14;1.63;;;0.73;;
71600;SDS011;59446;52.192;4.628;2022-11-03T15:07:58;4.00;;;1.02;;
71600;SDS011;59446;52.192;4.628;2022-11-03T15:10:24;2.73;;;1.10;;
71600;SDS011;59446;52.192;4.628;2022-11-03T15:12:49;3.13;;;0.77;;
71600;SDS011;59446;52.192;4.628;2022-11-03T15:15:15;5.33;;;1.07;;
71600;SDS011;59446;52.192;4.628;2022-11-03T15:17:40;2.50;;;0.83;;
71600;SDS011;59446;52.192;4.628;2022-11-03T15:20:05;3.13;;;0.97;;
71600;SDS011;59446;52.192;4.628;2022-11-03T15:22:31;2.75;;;1.08;;
71600;SDS011;59446;52.192;4.628;2022-11-03T15:24:57;2.40;;;1.07;;
71600;SDS011;59446;52.192;4.628;2022-11-03T15:27:22;10.87;;;1.07;;
71600;SDS011;59446;52.192;4.628;2022-11-03T15:29:47;2.40;;;1.00;;
71600;SDS011;59446;52.192;4.628;2022-11-03T15:32:13;1.83;;;0.80;;
71600;SDS011;59446;52.192;4.628;2022-11-03T15:34:39;2.72;;;0.95;;
71600;SDS011;59446;52.192;4.628;2022-11-03T15:37:05;1.50;;;0.70;;
71600;SDS011;59446;52.192;4.628;2022-11-03T15:39:30;2.43;;;0.90;;
71600;SDS011;59446;52.192;4.628;2022-11-03T15:41:56;3.90;;;0.80;;
71600;SDS011;59446;52.192;4.628;2022-11-03T15:44:23;2.08;;;0.90;;
71600;SDS011;59446;52.192;4.628;2022-11-03T15:46:49;1.87;;;0.80;;
71600;SDS011;59446;52.192;4.628;2022-11-03T15:49:14;2.83;;;1.20;;
71600;SDS011;59446;52.192;4.628;2022-11-03T15:51:40;2.63;;;0.90;;
71600;SDS011;59446;52.192;4.628;2022-11-03T15:54:05;2.33;;;0.90;;
71600;SDS011;59446;52.192;4.628;2022-11-03T15:56:30;2.67;;;0.90;;